createdAt,value
2023-02-19T00:01:37.905Z,73.55
2023-02-19T00:04:07.792Z,73.49
2023-02-19T00:06:36.169Z,73.75
2023-02-19T00:09:04.601Z,73.59
2023-02-19T00:11:34.249Z,73.70
2023-02-19T00:14:03.345Z,73.63
2023-02-19T00:16:33.572Z,73.68
2023-02-19T00:19:03.291Z,73.38
2023-02-19T00:21:31.010Z,73.27
2023-02-19T00:24:00.443Z,73.56
2023-02-19T00:26:28.728Z,73.32
2023-02-19T00:28:57.606Z,73.35
2023-02-19T00:31:28.028Z,73.41
2023-02-19T00:33:58.273Z,73.19
2023-02-19T00:36:27.799Z,73.33
2023-02-19T00:38:56.266Z,73.18
2023-02-19T00:41:25.497Z,73.44
2023-02-19T00:43:54.842Z,72.81
2023-02-19T00:46:24.257Z,73.22
2023-02-19T00:48:52.846Z,73.31
2023-02-19T00:51:22.163Z,73.04
2023-02-19T00:53:50.229Z,72.93
2023-02-19T00:56:18.965Z,73.19
2023-02-19T00:58:46.997Z,72.83
2023-02-19T01:01:15.596Z,73.04
2023-02-19T01:03:43.728Z,73.05
2023-02-19T01:06:14.052Z,72.85
2023-02-19T01:08:41.929Z,72.78
2023-02-19T01:11:10.778Z,72.69
2023-02-19T01:13:39.687Z,73.12
2023-02-19T01:16:10.751Z,73.09
2023-02-19T01:18:39.033Z,73.30
2023-02-19T01:21:08.308Z,73.16
2023-02-19T01:23:36.975Z,73.29
2023-02-19T01:26:06.635Z,73.02
2023-02-19T01:28:34.481Z,73.40
2023-02-19T01:31:04.103Z,73.19
2023-02-19T01:33:32.972Z,73.56
2023-02-19T01:36:03.847Z,73.22
2023-02-19T01:38:31.826Z,73.11
2023-02-19T01:41:01.600Z,73.07
2023-02-19T01:43:31.220Z,73.18
2023-02-19T01:45:59.372Z,73.44
2023-02-19T01:48:31.242Z,73.80
2023-02-19T01:51:05.262Z,73.47
2023-02-19T01:53:37.285Z,73.60
2023-02-19T01:56:07.714Z,73.46
2023-02-19T01:58:37.367Z,73.59
2023-02-19T02:01:08.308Z,73.75
2023-02-19T02:03:39.141Z,73.64
2023-02-19T02:06:14.594Z,73.90
2023-02-19T02:09:01.242Z,73.89
2023-02-19T02:15:55.526Z,74.11
2023-02-19T02:18:34.117Z,73.74
2023-02-19T02:21:21.875Z,73.72
2023-02-19T02:24:04.157Z,73.81
2023-02-19T02:26:45.857Z,73.86
2023-02-19T02:29:47.266Z,73.96
2023-02-19T02:32:21.213Z,74.16
2023-02-19T02:34:56.054Z,73.76
2023-02-19T02:37:27.760Z,73.56
2023-02-19T02:39:57.530Z,74.00
2023-02-19T02:42:28.467Z,73.87
2023-02-19T02:45:36.892Z,73.91
2023-02-19T02:48:21.756Z,73.74
2023-02-19T02:50:54.366Z,73.92
2023-02-19T02:53:44.774Z,73.98
2023-02-19T02:56:15.574Z,73.70
2023-02-19T02:58:44.885Z,73.89
2023-02-19T03:01:36.573Z,73.82
2023-02-19T03:04:09.636Z,73.91
2023-02-19T03:06:39.885Z,74.25
2023-02-19T03:09:11.694Z,73.97
2023-02-19T03:12:02.232Z,74.21
2023-02-19T03:14:53.998Z,74.07
2023-02-19T03:17:44.909Z,74.15
2023-02-19T03:20:15.717Z,74.06
2023-02-19T03:22:46.657Z,74.29
2023-02-19T03:25:37.744Z,74.09
2023-02-19T03:28:10.511Z,74.04
2023-02-19T03:30:43.308Z,74.18
2023-02-19T03:33:14.063Z,74.03
2023-02-19T03:35:44.895Z,74.14
2023-02-19T03:38:18.323Z,74.04
2023-02-19T03:40:54.155Z,74.11
2023-02-19T03:43:31.787Z,74.14
2023-02-19T03:46:08.964Z,74.60
2023-02-19T03:48:45.504Z,74.27
2023-02-19T03:51:25.365Z,74.63
2023-02-19T03:54:05.199Z,74.46
2023-02-19T03:56:38.712Z,74.59
2023-02-19T03:59:14.174Z,74.73
2023-02-19T04:01:46.594Z,74.59
2023-02-19T04:04:19.850Z,74.84
2023-02-19T04:06:53.778Z,74.70
2023-02-19T04:09:23.590Z,74.68
2023-02-19T04:11:58.361Z,74.87
2023-02-19T04:14:32.632Z,74.88
2023-02-19T04:17:02.912Z,74.82
2023-02-19T04:19:34.617Z,74.85
2023-02-19T04:22:04.378Z,74.36
2023-02-19T04:24:35.974Z,74.60
2023-02-19T04:27:04.623Z,74.55
2023-02-19T04:29:32.297Z,74.35
2023-02-19T04:32:00.279Z,74.44
2023-02-19T04:34:27.978Z,74.54
2023-02-19T04:36:55.728Z,74.31
2023-02-19T04:39:23.470Z,74.42
2023-02-19T04:41:51.206Z,74.44
2023-02-19T04:44:18.905Z,74.44
2023-02-19T04:46:46.634Z,74.23
2023-02-19T04:49:14.420Z,74.10
2023-02-19T04:51:42.120Z,73.97
2023-02-19T04:54:10.038Z,74.19
2023-02-19T04:56:37.745Z,73.93
2023-02-19T04:59:05.425Z,74.15
2023-02-19T05:01:33.170Z,74.32
2023-02-19T05:04:00.921Z,74.54
2023-02-19T05:06:28.705Z,74.37
2023-02-19T05:08:56.445Z,74.68
2023-02-19T05:11:24.144Z,74.62
2023-02-19T05:13:51.837Z,74.72
2023-02-19T05:16:19.728Z,74.68
2023-02-19T05:18:47.472Z,74.82
2023-02-19T05:21:15.600Z,74.80
2023-02-19T05:23:43.419Z,74.77
2023-02-19T05:26:17.160Z,74.69
2023-02-19T05:28:45.236Z,74.76
2023-02-19T05:31:14.049Z,74.41
2023-02-19T05:33:43.555Z,74.33
2023-02-19T05:36:13.755Z,74.35
2023-02-19T05:38:42.394Z,74.52
2023-02-19T05:41:13.189Z,74.35
2023-02-19T05:43:42.236Z,74.32
2023-02-19T05:46:11.568Z,74.51
2023-02-19T05:48:39.449Z,74.29
2023-02-19T05:51:10.240Z,74.41
2023-02-19T05:53:38.593Z,74.61
2023-02-19T05:56:23.715Z,74.62
2023-02-19T05:58:51.857Z,74.62
2023-02-19T06:01:21.879Z,74.65
2023-02-19T06:03:49.596Z,74.62
2023-02-19T06:06:19.046Z,74.62
2023-02-19T06:08:47.725Z,74.65
2023-02-19T06:11:15.449Z,74.92
2023-02-19T06:13:43.223Z,74.74
2023-02-19T06:16:11.227Z,74.89
2023-02-19T06:18:40.565Z,74.87
2023-02-19T06:21:10.661Z,74.92
2023-02-19T06:23:39.454Z,75.03
2023-02-19T06:26:09.470Z,75.00
2023-02-19T06:28:38.085Z,75.06
2023-02-19T06:31:07.100Z,75.35
2023-02-19T06:33:35.197Z,75.20
2023-02-19T06:36:04.228Z,75.36
2023-02-19T06:38:32.290Z,75.26
2023-02-19T06:41:02.433Z,75.28
2023-02-19T06:43:31.601Z,75.51
2023-02-19T06:45:59.782Z,75.50
2023-02-19T06:48:28.673Z,75.63
2023-02-19T06:50:57.258Z,75.52
2023-02-19T06:53:25.221Z,75.65
2023-02-19T06:56:01.177Z,75.74
2023-02-19T06:58:28.954Z,75.75
2023-02-19T07:00:56.842Z,75.97
2023-02-19T07:03:25.979Z,75.66
2023-02-19T07:05:54.293Z,75.74
2023-02-19T07:08:22.057Z,75.40
2023-02-19T07:10:56.024Z,75.15
2023-02-19T07:13:24.166Z,75.03
2023-02-19T07:15:52.556Z,74.75
2023-02-19T07:18:20.498Z,74.81
2023-02-19T07:20:48.268Z,74.55
2023-02-19T07:23:15.955Z,74.50
2023-02-19T07:25:43.698Z,74.05
2023-02-19T07:28:11.437Z,73.99
2023-02-19T07:30:39.142Z,73.77
2023-02-19T07:33:10.033Z,73.58
2023-02-19T07:35:38.445Z,73.42
2023-02-19T07:38:06.172Z,73.47
2023-02-19T07:40:34.911Z,73.50
2023-02-19T07:43:02.760Z,73.27
2023-02-19T07:45:30.479Z,73.16
2023-02-19T07:47:58.223Z,73.05
2023-02-19T07:50:25.963Z,73.02
2023-02-19T07:52:53.732Z,72.95
2023-02-19T07:55:21.471Z,72.71
2023-02-19T07:57:49.145Z,72.56
2023-02-19T08:00:19.380Z,72.60
2023-02-19T08:02:59.636Z,72.73
2023-02-19T08:05:28.221Z,72.61
2023-02-19T08:07:56.359Z,72.67
2023-02-19T08:10:43.314Z,72.53
2023-02-19T08:13:18.848Z,72.43
2023-02-19T08:15:48.124Z,72.30
2023-02-19T08:18:16.914Z,72.00
2023-02-19T08:20:45.048Z,71.92
2023-02-19T08:23:13.283Z,71.72
2023-02-19T08:25:42.557Z,71.62
2023-02-19T08:28:11.752Z,71.46
2023-02-19T08:30:41.482Z,71.37
2023-02-19T08:33:10.357Z,71.02
2023-02-19T08:35:38.736Z,71.09
2023-02-19T08:38:07.391Z,71.29
2023-02-19T08:40:36.626Z,71.01
2023-02-19T08:43:05.938Z,70.96
2023-02-19T08:45:34.303Z,71.07
2023-02-19T08:48:02.131Z,70.53
2023-02-19T08:50:29.973Z,70.65
2023-02-19T08:52:59.675Z,70.54
2023-02-19T08:55:28.168Z,70.63
2023-02-19T08:57:56.166Z,70.60
2023-02-19T09:00:24.214Z,70.31
2023-02-19T09:02:52.173Z,70.62
2023-02-19T09:05:20.248Z,70.18
2023-02-19T09:07:47.932Z,70.32
2023-02-19T09:10:15.706Z,70.54
2023-02-19T09:12:43.437Z,70.50
2023-02-19T09:15:11.191Z,70.58
2023-02-19T09:17:38.856Z,70.46
2023-02-19T09:20:08.520Z,70.31
2023-02-19T09:22:36.237Z,70.77
2023-02-19T09:25:05.014Z,70.81
2023-02-19T09:27:32.946Z,70.62
2023-02-19T09:30:01.835Z,70.79
2023-02-19T09:32:31.671Z,70.88
2023-02-19T09:34:59.428Z,70.90
2023-02-19T09:37:28.062Z,70.97
2023-02-19T09:39:56.156Z,70.93
2023-02-19T09:42:28.635Z,70.63
2023-02-19T09:45:00.189Z,70.42
2023-02-19T09:47:30.358Z,70.59
2023-02-19T09:50:02.416Z,70.19
2023-02-19T09:52:35.408Z,70.16
2023-02-19T09:55:12.995Z,70.35
2023-02-19T09:57:42.692Z,70.30
2023-02-19T10:00:22.248Z,70.39
2023-02-19T10:02:53.445Z,69.94
2023-02-19T10:05:24.312Z,69.82
2023-02-19T10:07:54.010Z,69.46
2023-02-19T10:10:33.879Z,69.20
2023-02-19T10:13:17.484Z,69.35
2023-02-19T10:15:49.882Z,69.03
2023-02-19T10:18:20.122Z,69.28
2023-02-19T10:20:49.466Z,68.88
2023-02-19T10:23:18.041Z,69.29
2023-02-19T10:25:49.889Z,68.59
2023-02-19T10:28:21.470Z,68.00
2023-02-19T10:30:53.196Z,67.57
2023-02-19T10:33:22.078Z,67.17
2023-02-19T10:35:55.115Z,67.41
2023-02-19T10:38:27.593Z,67.26
2023-02-19T10:41:04.301Z,66.89
2023-02-19T10:43:36.441Z,67.34
2023-02-19T10:46:08.347Z,67.27
2023-02-19T10:48:46.685Z,67.45
2023-02-19T10:51:21.120Z,67.80
2023-02-19T10:53:51.259Z,67.79
2023-02-19T10:56:26.087Z,68.03
2023-02-19T10:58:54.561Z,68.28
2023-02-19T11:01:26.469Z,67.79
2023-02-19T11:04:15.972Z,67.90
2023-02-19T11:06:45.225Z,67.58
2023-02-19T11:09:25.454Z,67.21
2023-02-19T11:11:55.699Z,67.15
2023-02-19T11:14:25.777Z,67.52
2023-02-19T11:16:55.819Z,67.04
2023-02-19T11:19:30.002Z,66.75
2023-02-19T11:21:58.994Z,65.92
2023-02-19T11:24:30.786Z,65.49
2023-02-19T11:27:00.239Z,65.58
2023-02-19T11:29:28.799Z,65.52
2023-02-19T11:31:56.815Z,65.22
2023-02-19T11:34:34.226Z,65.63
2023-02-19T11:37:13.842Z,65.32
2023-02-19T11:39:43.770Z,65.10
2023-02-19T11:42:34.641Z,64.61
2023-02-19T11:45:15.618Z,64.53
2023-02-19T11:48:22.054Z,64.74
2023-02-19T11:50:56.973Z,64.75
2023-02-19T11:53:27.904Z,65.35
2023-02-19T11:56:11.267Z,65.05
2023-02-19T11:58:58.995Z,64.97
2023-02-19T12:01:51.993Z,64.73
2023-02-19T12:04:45.430Z,64.64
2023-02-19T12:07:26.426Z,64.48
2023-02-19T12:10:11.016Z,64.05
2023-02-19T12:13:04.038Z,62.92
2023-02-19T12:15:43.978Z,63.32
2023-02-19T12:18:40.893Z,62.93
2023-02-19T12:21:22.360Z,62.90
2023-02-19T12:24:09.018Z,62.38
2023-02-19T12:26:45.297Z,62.46
2023-02-19T12:29:27.513Z,62.21
2023-02-19T12:32:14.195Z,62.11
2023-02-19T12:35:19.887Z,61.81
2023-02-19T12:37:57.083Z,60.14
2023-02-19T12:40:37.744Z,59.70
2023-02-19T12:43:15.508Z,59.36
2023-02-19T12:45:48.475Z,59.35
2023-02-19T12:48:26.610Z,59.25
2023-02-19T12:50:58.677Z,59.17
2023-02-19T12:53:35.438Z,58.57
2023-02-19T12:56:09.677Z,57.73
2023-02-19T12:58:44.136Z,57.40
2023-02-19T13:01:18.054Z,57.37
2023-02-19T13:03:50.237Z,57.37
2023-02-19T13:06:30.116Z,57.33
2023-02-19T13:09:07.039Z,56.77
2023-02-19T13:11:39.958Z,56.84
2023-02-19T13:14:17.074Z,57.23
2023-02-19T13:16:49.632Z,57.40
2023-02-19T13:19:17.535Z,57.38
2023-02-19T13:22:09.552Z,56.91
2023-02-19T13:24:41.511Z,56.61
2023-02-19T13:27:27.886Z,56.78
2023-02-19T13:30:10.139Z,56.40
2023-02-19T13:33:00.425Z,55.52
2023-02-19T13:35:52.457Z,55.76
2023-02-19T13:38:20.646Z,55.98
2023-02-19T13:40:55.590Z,55.63
2023-02-19T13:43:26.580Z,56.33
2023-02-19T13:45:58.237Z,56.03
2023-02-19T13:48:29.333Z,55.61
2023-02-19T13:51:32.305Z,55.83
2023-02-19T13:54:01.233Z,56.06
2023-02-19T13:56:43.194Z,55.64
2023-02-19T13:59:35.785Z,55.76
2023-02-19T14:02:27.365Z,55.70
2023-02-19T14:04:59.510Z,55.85
2023-02-19T14:08:01.544Z,55.83
2023-02-19T14:11:01.873Z,55.83
2023-02-19T14:14:09.530Z,55.56
2023-02-19T14:17:03.995Z,55.62
2023-02-19T14:19:50.306Z,55.32
2023-02-19T14:23:00.852Z,55.09
2023-02-19T14:25:33.794Z,54.85
2023-02-19T14:28:06.359Z,54.46
2023-02-19T14:30:41.389Z,54.68
2023-02-19T14:33:11.464Z,54.28
2023-02-19T14:35:42.671Z,54.12
2023-02-19T14:38:18.113Z,54.61
2023-02-19T14:40:48.150Z,54.99
2023-02-19T14:43:19.286Z,54.98
2023-02-19T14:45:50.169Z,55.44
2023-02-19T14:48:23.608Z,56.05
2023-02-19T14:50:55.163Z,55.82
2023-02-19T14:53:24.506Z,55.80
2023-02-19T14:55:54.236Z,55.66
2023-02-19T14:58:28.013Z,55.57
2023-02-19T15:00:55.757Z,55.94
2023-02-19T15:03:29.444Z,55.92
2023-02-19T15:06:00.900Z,55.85
2023-02-19T15:08:34.467Z,56.33
2023-02-19T15:11:04.124Z,56.26
2023-02-19T15:13:32.182Z,56.14
2023-02-19T15:16:00.065Z,56.16
2023-02-19T15:18:29.372Z,56.18
2023-02-19T15:21:03.256Z,56.35
2023-02-19T15:23:33.280Z,56.30
2023-02-19T15:26:01.417Z,56.46
2023-02-19T15:28:33.792Z,56.09
2023-02-19T15:31:06.844Z,56.68
2023-02-19T15:33:35.027Z,56.76
2023-02-19T15:36:07.343Z,56.64
2023-02-19T15:38:35.118Z,56.77
2023-02-19T15:41:03.534Z,56.44
2023-02-19T15:43:39.879Z,56.15
2023-02-19T15:46:14.932Z,55.64
2023-02-19T15:48:49.391Z,55.17
2023-02-19T15:51:22.110Z,55.38
2023-02-19T15:53:54.869Z,55.63
2023-02-19T15:56:28.807Z,55.60
2023-02-19T15:59:00.020Z,55.72
2023-02-19T16:01:37.554Z,55.72
2023-02-19T16:04:11.161Z,55.83
2023-02-19T16:06:52.869Z,55.87
2023-02-19T16:09:22.853Z,55.89
2023-02-19T16:11:52.556Z,56.19
2023-02-19T16:14:28.462Z,56.09
2023-02-19T16:16:58.815Z,56.09
2023-02-19T16:19:29.367Z,56.18
2023-02-19T16:21:58.332Z,56.54
2023-02-19T16:24:29.832Z,56.63
2023-02-19T16:26:58.191Z,56.80
2023-02-19T16:29:29.112Z,57.18
2023-02-19T16:32:00.167Z,56.97
2023-02-19T16:34:42.457Z,57.50
2023-02-19T16:37:32.665Z,57.64
2023-02-19T16:40:46.484Z,57.77
2023-02-19T16:43:39.948Z,57.93
2023-02-19T16:46:10.507Z,57.87
2023-02-19T16:48:38.543Z,57.68
2023-02-19T16:51:08.221Z,57.97
2023-02-19T16:53:35.913Z,57.75
2023-02-19T16:56:04.145Z,58.04
2023-02-19T16:58:31.843Z,58.39
2023-02-19T17:01:00.148Z,58.16
2023-02-19T17:03:28.257Z,58.36
2023-02-19T17:05:56.818Z,58.12
2023-02-19T17:08:33.203Z,58.41
2023-02-19T17:11:03.932Z,58.49
2023-02-19T17:13:31.812Z,58.25
2023-02-19T17:15:59.998Z,58.35
2023-02-19T17:18:27.777Z,58.17
2023-02-19T17:21:01.026Z,58.55
2023-02-19T17:23:28.912Z,58.29
2023-02-19T17:25:56.941Z,58.65
2023-02-19T17:28:25.300Z,58.65
2023-02-19T17:30:53.617Z,58.67
2023-02-19T17:33:21.345Z,58.67
2023-02-19T17:35:49.033Z,58.85
2023-02-19T17:38:16.860Z,58.85
2023-02-19T17:40:45.147Z,58.89
2023-02-19T17:43:13.001Z,58.83
2023-02-19T17:45:41.030Z,58.83
2023-02-19T17:48:12.790Z,59.07
2023-02-19T17:50:41.393Z,59.11
2023-02-19T17:53:09.441Z,59.00
2023-02-19T17:55:37.195Z,59.04
2023-02-19T17:58:04.916Z,59.01
2023-02-19T18:00:33.588Z,59.12
2023-02-19T18:03:01.527Z,59.27
2023-02-19T18:05:29.628Z,59.06
2023-02-19T18:07:57.368Z,59.11
2023-02-19T18:10:25.277Z,59.24
2023-02-19T18:12:53.053Z,59.27
2023-02-19T18:15:23.322Z,59.13
2023-02-19T18:17:51.070Z,59.16
2023-02-19T18:20:21.469Z,59.15
2023-02-19T18:22:49.873Z,59.04
2023-02-19T18:25:18.965Z,59.26
2023-02-19T18:27:47.150Z,59.20
2023-02-19T18:30:18.243Z,59.76
2023-02-19T18:32:47.441Z,59.78
2023-02-19T18:35:16.274Z,59.54
2023-02-19T18:37:44.383Z,59.87
2023-02-19T18:40:13.776Z,59.80
2023-02-19T18:42:41.565Z,59.79
2023-02-19T18:45:09.593Z,59.95
2023-02-19T18:47:37.498Z,60.28
2023-02-19T18:50:07.697Z,60.14
2023-02-19T18:52:35.490Z,60.39
2023-02-19T18:55:03.277Z,60.39
2023-02-19T18:57:31.207Z,60.41
2023-02-19T18:59:59.292Z,60.43
2023-02-19T19:02:29.740Z,60.65
2023-02-19T19:04:58.616Z,60.52
2023-02-19T19:07:26.441Z,60.37
2023-02-19T19:09:54.161Z,60.82
2023-02-19T19:12:21.920Z,60.48
2023-02-19T19:14:49.595Z,60.58
2023-02-19T19:17:17.344Z,60.95
2023-02-19T19:19:45.192Z,60.89
2023-02-19T19:22:13.196Z,61.04
2023-02-19T19:24:42.126Z,60.98
2023-02-19T19:27:09.815Z,61.01
2023-02-19T19:29:37.684Z,61.14
2023-02-19T19:32:08.051Z,61.23
2023-02-19T19:34:36.157Z,61.23
2023-02-19T19:37:03.885Z,61.24
2023-02-19T19:39:31.614Z,61.23
2023-02-19T19:41:59.321Z,61.12
2023-02-19T19:44:27.117Z,61.26
2023-02-19T19:46:55.730Z,61.20
2023-02-19T19:49:23.597Z,61.54
2023-02-19T19:51:51.726Z,61.33
2023-02-19T19:54:19.502Z,62.18
2023-02-19T19:56:49.482Z,64.24
2023-02-19T19:59:18.164Z,64.02
2023-02-19T20:01:50.476Z,63.19
2023-02-19T20:04:19.378Z,62.64
2023-02-19T20:06:47.097Z,62.64
2023-02-19T20:09:15.719Z,62.28
2023-02-19T20:11:47.930Z,62.34
2023-02-19T20:14:17.726Z,62.25
2023-02-19T20:16:46.948Z,62.08
2023-02-19T20:19:15.979Z,62.10
2023-02-19T20:21:45.597Z,61.81
2023-02-19T20:24:15.611Z,61.67
2023-02-19T20:26:43.482Z,61.63
2023-02-19T20:29:11.269Z,61.66
2023-02-19T20:31:39.438Z,61.77
2023-02-19T20:34:07.255Z,61.74
2023-02-19T20:36:42.974Z,61.78
2023-02-19T20:39:10.910Z,61.71
2023-02-19T20:41:38.633Z,61.82
2023-02-19T20:44:06.495Z,62.01
2023-02-19T20:46:39.768Z,61.76
2023-02-19T20:49:07.626Z,61.92
2023-02-19T20:51:43.793Z,61.92
2023-02-19T20:54:11.499Z,61.79
2023-02-19T20:56:44.540Z,62.07
2023-02-19T20:59:12.762Z,61.75
2023-02-19T21:01:40.868Z,61.99
2023-02-19T21:04:08.773Z,62.01
2023-02-19T21:06:36.827Z,62.11
2023-02-19T21:09:05.538Z,62.30
2023-02-19T21:11:33.572Z,62.28
2023-02-19T21:14:01.469Z,62.39
2023-02-19T21:16:31.498Z,62.43
2023-02-19T21:18:59.950Z,62.38
2023-02-19T21:21:30.536Z,62.48
2023-02-19T21:23:59.199Z,62.59
2023-02-19T21:26:34.428Z,62.71
2023-02-19T21:29:02.759Z,62.68
2023-02-19T21:31:39.846Z,62.60
2023-02-19T21:34:09.050Z,62.79
2023-02-19T21:36:37.328Z,62.89
2023-02-19T21:39:06.750Z,62.64
2023-02-19T21:41:34.529Z,62.89
2023-02-19T21:44:02.342Z,62.70
2023-02-19T21:46:32.237Z,62.90
2023-02-19T21:49:00.659Z,62.78
2023-02-19T21:51:33.144Z,62.95
2023-02-19T21:54:01.185Z,62.98
2023-02-19T21:56:31.326Z,62.94
2023-02-19T21:58:59.602Z,62.97
2023-02-19T22:01:29.410Z,62.96
2023-02-19T22:03:57.135Z,62.95
2023-02-19T22:06:28.698Z,63.06
2023-02-19T22:08:57.252Z,63.45
2023-02-19T22:11:25.295Z,63.92
2023-02-19T22:13:52.994Z,63.67
2023-02-19T22:16:20.791Z,64.17
2023-02-19T22:18:49.808Z,64.10
2023-02-19T22:21:18.253Z,64.39
2023-02-19T22:23:47.180Z,64.55
2023-02-19T22:26:19.535Z,64.61
2023-02-19T22:28:47.637Z,64.47
2023-02-19T22:31:16.340Z,64.56
2023-02-19T22:33:44.110Z,64.66
2023-02-19T22:36:17.232Z,64.68
2023-02-19T22:38:45.445Z,64.74
2023-02-19T22:41:13.811Z,64.51
2023-02-19T22:43:42.427Z,64.56
2023-02-19T22:46:13.771Z,64.32
2023-02-19T22:48:41.956Z,64.50
2023-02-19T22:51:14.090Z,64.60
2023-02-19T22:53:44.487Z,64.64
2023-02-19T22:56:13.152Z,64.63
2023-02-19T22:58:41.883Z,64.49
2023-02-19T23:01:09.891Z,64.57
2023-02-19T23:03:46.474Z,64.25
2023-02-19T23:06:14.952Z,64.12
2023-02-19T23:08:43.527Z,64.14
2023-02-19T23:11:12.520Z,64.35
2023-02-19T23:13:42.025Z,64.20
2023-02-19T23:16:09.936Z,64.15
2023-02-19T23:18:37.836Z,64.12
2023-02-19T23:21:05.587Z,64.28
2023-02-19T23:23:33.332Z,64.17
2023-02-19T23:26:01.032Z,64.23
2023-02-19T23:28:28.898Z,64.38
2023-02-19T23:30:56.737Z,64.34
2023-02-19T23:33:24.614Z,64.12
2023-02-19T23:35:52.404Z,64.26
2023-02-19T23:38:20.141Z,63.85
2023-02-19T23:40:47.838Z,63.63
2023-02-19T23:43:15.596Z,63.68
2023-02-19T23:45:43.359Z,63.49
2023-02-19T23:48:11.127Z,63.69
2023-02-19T23:50:38.811Z,63.70
2023-02-19T23:53:07.076Z,63.73
2023-02-19T23:55:34.771Z,63.58
2023-02-19T23:58:02.534Z,63.42
